Flight Track Log - Related Links

Times and Time Zones

All times are in EDT time to prevent confusion due to time zone crossing. See the SWA706 flight status page for this flight to view local times or setup timezone preferences in your user account.

Time Position Orientation Groundspeed Altitude Reporting Facility
EDT Latitude Longitude Course Direction KTS MPH feet Rate Location/Type
Sat 01:01:22 PM 41.7833 -87.8167 191° South 210 242 3,400  Level Chicago TRACON
Sat 01:02:35 PM 41.7214 -87.8547 205° Southwest 245 282 6,900 3,224 Climbing Chicago Center
Sat 01:03:36 PM 41.6483 -87.8953 203° Southwest 278 320 10,600 3,561 Climbing Chicago Center
Sat 01:04:38 PM 41.5481 -87.9517 203° Southwest 328 377 14,200 3,194 Climbing Chicago Center
Sat 01:05:40 PM 41.4594 -88.0011 203° Southwest 341 392 17,200 2,516 Climbing Chicago Center
Sat 01:06:00 PM 41.3239 -88.1696 191° South  Level Estimated
Sat 01:06:42 PM 41.3792 -88.0447 202° Southwest 353 406 19,400  Level Chicago Center
Sat 01:07:44 PM 41.2525 -88.0822 193° South 376 433 22,400 2,419 Climbing Chicago Center
Sat 01:08:46 PM 41.1439 -88.0967 186° South 390 449 24,400 1,742 Climbing Chicago Center
Sat 01:09:48 PM 41.0281 -88.1103 185° South 412 474 26,000 774 Climbing Chicago Center
Sat 01:10:50 PM 40.9050 -88.1247 185° South 440 506 26,000  Level Chicago Center
Sat 01:11:52 PM 40.7878 -88.1664 195° South 441 507 26,000  Level Chicago Center
Sat 01:12:54 PM 40.6575 -88.2478 205° Southwest 433 498 26,000  Level Chicago Center
Sat 01:13:55 PM 40.5483 -88.3128 204° Southwest 433 498 26,000  Level Chicago Center
Sat 01:14:57 PM 40.4381 -88.3772 204° Southwest 433 498 26,000  Level Chicago Center
Sat 01:15:59 PM 40.3292 -88.4428 205° Southwest 433 498 26,000  Level Chicago Center
Sat 01:17:01 PM 40.2119 -88.5119 204° Southwest 433 498 26,000  Level Chicago Center
Sat 01:18:03 PM 40.0997 -88.5786 204° Southwest 438 504 26,000  Level Chicago Center
Sat 01:19:05 PM 39.9889 -88.6442 204° Southwest 437 503 26,000  Level Chicago Center
Sat 01:20:07 PM 39.8769 -88.7092 204° Southwest 438 504 26,000  Level Chicago Center
Sat 01:20:59 PM 39.7647 -88.7758 205° Southwest 438 504 26,000  Level Kansas City Center
Sat 01:22:01 PM 39.6531 -88.8403 204° Southwest 437 503 26,000  Level Kansas City Center
Sat 01:23:03 PM 39.5414 -88.9067 205° Southwest 439 505 26,000  Level Kansas City Center
Sat 01:24:05 PM 39.4292 -88.9703 204° Southwest 439 505 26,000 -484 Level Kansas City Center
Sat 01:25:07 PM 39.3133 -89.0372 204° Southwest 437 503 25,000 -2,000 Descending Kansas City Center
Sat 01:26:08 PM 39.2039 -89.1003 204° Southwest 433 498 21,900 -2,488 Descending Kansas City Center
Sat 01:27:10 PM 39.0975 -89.1686 206° Southwest 404 465 19,900 -2,032 Descending Kansas City Center
Sat 01:28:12 PM 39.0614 -89.2994 250° West 360 414 17,700 -2,081 Descending Kansas City Center
Sat 01:29:14 PM 39.0361 -89.4183 255° West 348 400 15,600 -2,177 Descending Kansas City Center
Sat 01:30:16 PM 39.0078 -89.5439 254° West 343 395 13,200 -2,226 Descending Kansas City Center
Sat 01:31:18 PM 38.9592 -89.6417 237° Southwest 331 381 11,000 -1,645 Descending Kansas City Center
Sat 01:32:20 PM 38.8964 -89.7211 225° Southwest 326 375 9,800 -1,317 Descending Kansas City Center
Sat 01:33:21 PM 38.8389 -89.7933 224° Southwest 299 344 8,300 -1,171 Descending Kansas City Center
Sat 01:34:23 PM 38.7828 -89.8636 224° Southwest 286 329 7,400 -1,065 Descending Kansas City Center
Sat 01:35:25 PM 38.7294 -89.9386 228° Southwest 284 327 6,100 -1,355 Descending Kansas City Center
Sat 01:36:27 PM 38.6883 -90.0217 238° Southwest 280 322 4,600 -1,306 Descending Kansas City Center
Sat 01:37:29 PM 38.6719 -90.1250 259° West 262 302 3,400 -581 Descending Kansas City Center
Sat 01:38:31 PM 38.6767 -90.2019 275° West 230 265 3,400 -532 Level Kansas City Center
Sat 01:39:33 PM 38.6964 -90.2633 292° West 206 237 2,300 -1,016 Descending Kansas City Center
Sat 01:40:35 PM 38.7186 -90.3081 303° West 173 199 1,300 -823 Descending Kansas City Center
Sat 01:41:37 PM 38.7389 -90.3492 302° West 153 176 600 -677 Descending Kansas City Center
Sat 01:43:00 PM 38.7333 -90.3667 288° West  Level FlightAware Approximate

Login

Don't have an account? Register now (free) for customized features, flight alerts, and more!